Event-Kalender
Terminkalender Drucken Email help
Jahresansicht Monatsansicht Wochenansicht Heute Suche Zum ausgwählten Monat wechseln
Termine für
Dienstag, 11. Juli 2017



JEvents v1.5.5e   Copyright © 2006-2011

Zufallsbild

Aktuelle Termine

Mo Di Mi Do Fr Sa So
26 27 28 29 30 1 2
3 4 5 6 7 8 9
10 11 12 13 14 15 16
17 18 19 20 21 22 23
24 25 26 27 28 29 30
31 1 2 3 4 5 6

Pilotenwetter

[source: ADDS]
METAR
EDDH 210220Z 09002KT 5000 2400NW R15/0600V1900U BCFG BR NSC M01/M02 Q1005 TEMPO 2500 =
TAF
TAF EDDH 202300Z 2100/2206 13005KT 8000 BKN025 TEMPO 2100/2110 3500 BR BKN007 PROB40 TEMPO 2101/2110 2500 -SN BKN004 BECMG 2118/2121 BKN013 PROB30 TEMPO 2120/2206 BKN007 BECMG 2121/2123 14010KT =